Terminal Aerodrome Forecast
Issued by NWS

Home | Current Version | Previous Version | Text Only | Print | Product List | Glossary On
Versions: 1 2 3 4 5 6 7 8 9 10 11 12 13
396
FTUS45 KGGW 211720
TAFSDY
TAF
KSDY 211720Z 2118/2218 29023G33KT P6SM BKN025
     FM212100 30020G29KT P6SM SCT060
     FM212300 29013KT P6SM FEW070
     FM220400 26004KT P6SM SKC
     FM221400 21008KT P6SM BKN100 WS020/25035KT
     FM221700 22014KT P6SM BKN060=

USA.gov is the U.S. government's official web portal to all federal, state and local government web resources and services.